• Join FlightAware (Why Join?)
  • Login
  • US Flag 
01:05AM EDT


 

Airport Tracker/Info


-or-


 

Live Flight TrackerFlight Track Log ✈ AAL808 ✈ 29-Apr-2012 ✈ KCOS - KDFW

Flight Track Log - Related Links

Times and Time Zones

All times are in EDT time to prevent confusion due to time zone crossing. See the AAL808 flight status page for this flight to view local times or setup timezone preferences in your user account.

Time Position Orientation Groundspeed Altitude Reporting Facility
EDT Latitude Longitude Course Direction KTS MPH feet Rate Location/Type
10:13AM 38.7828 -104.6827 23° Northeast  Level FlightAware Approximate
10:14AM 38.7036 -104.5839 351° North  Level FlightAware Approximate
10:15AM 38.6114 -104.5064 342° North  Level FlightAware Approximate
10:16AM 38.8936 -104.6219 138° Southeast 253 291 11,700  Level Denver Center
10:17AM 38.8383 -104.5578 149° Southeast 280 322 13,100 1,680 Climbing Denver Center
10:18AM 38.7467 -104.4858 148° Southeast 349 402 15,200 1,980 Climbing Denver Center
10:19AM 38.6622 -104.4172 147° Southeast 371 427 17,300 1,980 Climbing Denver Center
10:20AM 38.5742 -104.3433 148° Southeast 392 451 19,400 2,100 Climbing Denver Center
10:21AM 38.4664 -104.2572 148° Southeast 405 466 21,700 2,100 Climbing Denver Center
10:22AM 38.3714 -104.1828 151° Southeast 414 476 23,800 1,920 Climbing Denver Center
10:23AM 38.2561 -104.1011 159° South 420 483 25,700 1,200 Climbing Denver Center
10:24AM 38.1494 -104.0503 158° South 427 491 26,300 1,020 Climbing Denver Center
10:25AM 38.0269 -103.9869 158° South 425 489 27,900 1,680 Climbing Denver Center
10:26AM 37.9189 -103.9322 158° South 432 497 29,800 1,380 Climbing Denver Center
10:27AM 37.8131 -103.8786 158° South 427 491 30,800 660 Climbing Denver Center
10:28AM 37.6900 -103.8164 158° South 423 487 31,200 720 Climbing Denver Center
10:29AM 37.5833 -103.7622 158° South 423 487 32,300 840 Climbing Denver Center
10:31AM 37.4586 -103.7003 158° South 425 489 33,000 300 Climbing Denver Center
10:32AM 37.3531 -103.6478 156° South 423 487 33,000  Level Denver Center
10:33AM 37.2489 -103.5897 143° Southeast 425 489 33,000  Level Denver Center
10:34AM 37.1383 -103.4839 142° Southeast 446 513 33,000  Level Denver Center
10:35AM 37.0431 -103.3922 142° Southeast 447 514 33,000  Level Denver Center
10:36AM 36.9331 -103.2867 130° Southeast 447 514 33,000  Level Denver Center
10:37AM 36.8158 -103.1136 126° Southeast 456 525 33,000  Level Albuquerque Center
10:38AM 36.7306 -102.9653 126° Southeast 469 540 33,000  Level Albuquerque Center
10:39AM 36.6564 -102.8389 126° Southeast 470 541 33,000  Level Albuquerque Center
10:40AM 36.5817 -102.7103 126° Southeast 471 542 33,000  Level Albuquerque Center
10:41AM 36.5058 -102.5803 126° Southeast 467 537 33,000  Level Albuquerque Center
10:42AM 36.4150 -102.4239 126° Southeast 465 535 33,000  Level Albuquerque Center
10:43AM 36.3394 -102.2953 126° Southeast 463 533 33,000  Level Albuquerque Center
10:44AM 36.2628 -102.1656 126° Southeast 464 534 33,000  Level Albuquerque Center
10:45AM 36.1872 -102.0372 126° Southeast 462 532 33,000  Level Albuquerque Center
10:47AM 36.1100 -101.9081 126° Southeast 463 533 33,000  Level Albuquerque Center
10:48AM 36.0333 -101.7781 126° Southeast 465 535 33,000  Level Albuquerque Center
10:49AM 35.9417 -101.6211 127° Southeast 466 536 33,000  Level Albuquerque Center
10:50AM 35.8642 -101.4953 126° Southeast 462 532 33,000  Level Albuquerque Center
10:51AM 35.7889 -101.3692 126° Southeast 457 526 33,000  Level Albuquerque Center
10:52AM 35.7131 -101.2428 126° Southeast 456 525 33,000  Level Albuquerque Center
10:53AM 35.6372 -101.1167 127° Southeast 455 524 33,000  Level Albuquerque Center
10:54AM 35.5603 -100.9922 127° Southeast 454 522 33,000  Level Albuquerque Center
10:55AM 35.4833 -100.8661 127° Southeast 457 526 33,000  Level Albuquerque Center
10:56AM 35.4072 -100.7417 127° Southeast 456 525 33,000  Level Albuquerque Center
10:57AM 35.3203 -100.6011 127° Southeast 454 522 33,000  Level Albuquerque Center
10:58AM 35.2444 -100.4781 127° Southeast 453 521 33,000  Level Albuquerque Center
10:59AM 35.1683 -100.3558 127° Southeast 454 522 33,000  Level Albuquerque Center
11:00AM 35.0919 -100.2336 127° Southeast 453 521 33,000  Level Albuquerque Center
11:01AM 35.0006 -100.0878 127° Southeast 452 520 33,000  Level Albuquerque Center
11:02AM 34.9247 -99.9650 128° Southeast 453 521 33,000  Level Albuquerque Center
11:03AM 34.8489 -99.8447 127° Southeast 451 519 33,000  Level Albuquerque Center
11:04AM 34.7725 -99.7231 128° Southeast 452 520 33,000  Level Albuquerque Center
11:05AM 34.6944 -99.6031 127° Southeast 455 524 33,000  Level Fort Worth Center
11:06AM 34.6172 -99.4800 128° Southeast 455 524 33,000  Level Fort Worth Center
11:07AM 34.5400 -99.3597 128° Southeast 455 524 33,000  Level Fort Worth Center
11:08AM 34.4644 -99.2422 128° Southeast 455 524 33,000 -660 Level Fort Worth Center
11:09AM 34.3869 -99.1222 127° Southeast 455 524 31,700 -1,500 Descending Fort Worth Center
11:10AM 34.3114 -99.0000 130° Southeast 455 524 30,000 -1,740 Descending Fort Worth Center
11:11AM 34.2314 -98.8831 128° Southeast 455 524 28,300 -1,740 Descending Fort Worth Center
11:12AM 34.1514 -98.7611 128° Southeast 455 524 26,600 -1,740 Descending Fort Worth Center
11:13AM 34.0733 -98.6422 129° Southeast 452 520 24,900 -1,320 Descending Fort Worth Center
11:14AM 33.9992 -98.5308 128° Southeast 440 506 24,000 -480 Descending Fort Worth Center
11:15AM 33.9250 -98.4172 129° Southeast 430 495 24,000  Level Fort Worth Center
11:16AM 33.8447 -98.2964 128° Southeast 425 489 24,000 -540 Level Fort Worth Center
11:17AM 33.7722 -98.1856 128° Southeast 431 496 23,000 -1,800 Descending Fort Worth Center
11:18AM 33.6978 -98.0725 129° Southeast 426 490 20,500 -2,220 Descending Fort Worth Center
11:19AM 33.6294 -97.9697 128° Southeast 415 478 18,600 -2,280 Descending Fort Worth Center
11:20AM 33.5653 -97.8697 132° Southeast 395 455 16,000 -3,000 Descending Fort Worth Center
11:21AM 33.4967 -97.7797 135° Southeast 363 418 12,600 -2,400 Descending Fort Worth Center
11:22AM 33.4342 -97.7047 132° Southeast 336 387 11,200 -1,620 Descending Fort Worth Center
11:23AM 33.3800 -97.6325 135° Southeast 298 343 9,400 -1,680 Descending Fort Worth Center
11:24AM 33.3258 -97.5675 135° Southeast 284 327 7,900 -1,500 Descending Fort Worth Center
11:25AM 33.2717 -97.5028 134° Southeast 279 321 6,500 -1,380 Descending Fort Worth Center
11:26AM 33.2194 -97.4383 135° Southeast 274 315 5,200 -1,020 Descending Fort Worth Center
11:27AM 33.1672 -97.3761 132° Southeast 274 315 4,500 -600 Descending Fort Worth Center
11:28AM 33.1256 -97.3217 134° Southeast 263 303 4,000 -300 Descending Fort Worth Center
11:29AM 33.0711 -97.2547 134° Southeast 252 290 3,900 -120 Descending Fort Worth Center